createdAt,value
2022-09-06T00:00:16.309Z,0.63
2022-09-06T00:02:55.378Z,0.63
2022-09-06T00:05:22.562Z,1.38
2022-09-06T00:07:49.689Z,0.77
2022-09-06T00:10:16.792Z,0.60
2022-09-06T00:12:43.914Z,1.30
2022-09-06T00:15:11.415Z,0.73
2022-09-06T00:17:38.380Z,0.63
2022-09-06T00:20:09.179Z,0.80
2022-09-06T00:22:37.195Z,0.80
2022-09-06T00:25:06.596Z,0.88
2022-09-06T00:27:34.487Z,0.47
2022-09-06T00:30:01.550Z,0.68
2022-09-06T00:32:28.517Z,0.70
2022-09-06T00:34:55.706Z,1.00
2022-09-06T00:37:22.714Z,1.38
2022-09-06T00:39:49.731Z,0.60
2022-09-06T00:42:16.930Z,0.52
2022-09-06T00:44:43.909Z,0.80
2022-09-06T00:47:10.878Z,0.73
2022-09-06T00:49:44.488Z,0.73
2022-09-06T00:52:15.195Z,0.85
2022-09-06T00:54:43.057Z,0.63
2022-09-06T00:57:11.015Z,1.00
2022-09-06T00:59:40.342Z,0.60
2022-09-06T01:02:09.402Z,0.50
2022-09-06T01:04:39.893Z,0.95
2022-09-06T01:07:18.563Z,0.82
2022-09-06T01:10:16.056Z,1.05
2022-09-06T01:12:55.652Z,0.93
2022-09-06T01:15:31.712Z,0.75
2022-09-06T01:18:08.717Z,1.88
2022-09-06T01:20:56.941Z,0.70
2022-09-06T01:23:52.781Z,0.80
2022-09-06T01:26:22.688Z,0.60
2022-09-06T01:28:50.773Z,1.23
2022-09-06T01:31:33.251Z,0.57
2022-09-06T01:34:03.480Z,1.10
2022-09-06T01:36:59.997Z,0.73
2022-09-06T01:39:34.080Z,0.70
2022-09-06T01:42:18.157Z,0.85
2022-09-06T01:44:51.069Z,0.65
2022-09-06T01:47:41.095Z,0.77
2022-09-06T01:50:14.361Z,0.80
2022-09-06T01:52:52.878Z,0.80
2022-09-06T01:55:23.038Z,0.52
2022-09-06T01:58:05.731Z,0.90
2022-09-06T02:00:40.567Z,1.05
2022-09-06T02:03:29.271Z,0.80
2022-09-06T02:06:20.015Z,0.73
2022-09-06T02:08:51.999Z,0.50
2022-09-06T02:11:19.256Z,0.73
2022-09-06T02:14:04.326Z,0.60
2022-09-06T02:16:35.712Z,0.90
2022-09-06T02:19:05.733Z,0.63
2022-09-06T02:21:38.324Z,0.95
2022-09-06T02:24:09.896Z,0.70
2022-09-06T02:26:40.902Z,0.63
2022-09-06T02:29:07.963Z,0.80
2022-09-06T02:31:47.258Z,0.60
2022-09-06T02:34:17.971Z,1.20
2022-09-06T02:36:45.464Z,0.75
2022-09-06T02:39:12.878Z,1.00
2022-09-06T02:41:46.378Z,1.10
2022-09-06T02:44:13.489Z,0.70
2022-09-06T02:46:40.922Z,0.98
2022-09-06T02:49:07.882Z,0.88
2022-09-06T02:51:40.906Z,0.85
2022-09-06T02:54:08.376Z,1.02
2022-09-06T02:56:36.684Z,1.00
2022-09-06T02:59:07.172Z,0.80
2022-09-06T03:01:34.487Z,1.08
2022-09-06T03:04:02.210Z,0.98
2022-09-06T03:06:29.236Z,0.73
2022-09-06T03:08:56.657Z,1.02
2022-09-06T03:11:23.556Z,0.90
2022-09-06T03:13:51.188Z,0.68
2022-09-06T03:16:19.707Z,1.08
2022-09-06T03:18:47.046Z,0.90
2022-09-06T03:21:15.403Z,0.75
2022-09-06T03:23:42.569Z,0.77
2022-09-06T03:26:09.487Z,0.88
2022-09-06T03:28:36.502Z,0.95
2022-09-06T03:31:04.311Z,0.65
2022-09-06T03:33:31.361Z,1.17
2022-09-06T03:36:01.026Z,0.82
2022-09-06T03:38:29.443Z,1.10
2022-09-06T03:40:56.697Z,0.85
2022-09-06T03:43:25.208Z,1.00
2022-09-06T03:45:54.455Z,1.20
2022-09-06T03:48:23.910Z,0.95
2022-09-06T03:50:53.229Z,1.15
2022-09-06T03:53:21.350Z,0.90
2022-09-06T03:55:50.418Z,0.63
2022-09-06T03:58:19.728Z,1.13
2022-09-06T04:00:46.941Z,1.17
2022-09-06T04:03:14.288Z,0.93
2022-09-06T04:05:44.973Z,0.90
2022-09-06T04:08:12.159Z,0.68
2022-09-06T04:10:39.119Z,1.00
2022-09-06T04:13:06.045Z,1.00
2022-09-06T04:15:33.202Z,0.98
2022-09-06T04:18:00.137Z,0.80
2022-09-06T04:20:27.073Z,1.10
2022-09-06T04:22:54.274Z,0.80
2022-09-06T04:25:21.251Z,1.00
2022-09-06T04:27:48.148Z,0.90
2022-09-06T04:30:15.370Z,0.73
2022-09-06T04:32:42.276Z,0.80
2022-09-06T04:35:10.443Z,1.02
2022-09-06T04:37:37.617Z,1.15
2022-09-06T04:40:05.210Z,0.93
2022-09-06T04:42:32.533Z,1.13
2022-09-06T04:44:59.742Z,0.93
2022-09-06T04:47:27.058Z,0.95
2022-09-06T04:49:54.033Z,0.90
2022-09-06T04:52:21.166Z,0.85
2022-09-06T04:54:48.117Z,1.10
2022-09-06T04:57:15.239Z,1.05
2022-09-06T04:59:42.357Z,1.10
2022-09-06T05:02:09.404Z,1.33
2022-09-06T05:04:36.408Z,0.73
2022-09-06T05:07:08.662Z,0.98
2022-09-06T05:09:35.923Z,0.82
2022-09-06T05:12:03.531Z,1.15
2022-09-06T05:14:31.145Z,1.50
2022-09-06T05:16:58.271Z,1.23
2022-09-06T05:19:25.373Z,1.30
2022-09-06T05:21:52.689Z,1.00
2022-09-06T05:24:19.818Z,1.58
2022-09-06T05:26:46.843Z,0.98
2022-09-06T05:29:14.000Z,0.80
2022-09-06T05:31:41.031Z,0.98
2022-09-06T05:34:08.004Z,1.02
2022-09-06T05:36:35.516Z,1.00
2022-09-06T05:39:02.630Z,0.65
2022-09-06T05:41:29.558Z,0.82
2022-09-06T05:43:56.779Z,1.60
2022-09-06T05:46:24.007Z,0.90
2022-09-06T05:49:04.862Z,1.23
2022-09-06T05:51:32.872Z,1.00
2022-09-06T05:54:00.232Z,0.68
2022-09-06T05:56:27.219Z,0.70
2022-09-06T05:58:56.369Z,0.77
2022-09-06T06:01:27.204Z,1.02
2022-09-06T06:03:58.955Z,0.88
2022-09-06T06:06:31.929Z,0.82
2022-09-06T06:08:59.691Z,0.80
2022-09-06T06:11:27.713Z,0.70
2022-09-06T06:13:54.993Z,0.90
2022-09-06T06:16:23.633Z,1.10
2022-09-06T06:18:52.634Z,0.70
2022-09-06T06:21:22.779Z,0.90
2022-09-06T06:23:56.131Z,0.90
2022-09-06T06:26:24.343Z,0.90
2022-09-06T06:28:51.780Z,0.90
2022-09-06T06:31:19.575Z,1.38
2022-09-06T06:33:46.791Z,1.00
2022-09-06T06:36:13.712Z,0.82
2022-09-06T06:38:42.649Z,0.70
2022-09-06T06:41:12.440Z,1.00
2022-09-06T06:43:39.779Z,0.82
2022-09-06T06:46:08.578Z,0.80
2022-09-06T06:48:37.632Z,0.98
2022-09-06T06:51:04.688Z,0.70
2022-09-06T06:53:32.813Z,1.10
2022-09-06T06:56:00.009Z,1.33
2022-09-06T06:58:27.495Z,0.93
2022-09-06T07:00:54.651Z,1.23
2022-09-06T07:03:21.871Z,0.93
2022-09-06T07:08:38.068Z,1.20
2022-09-06T07:11:06.975Z,1.00
2022-09-06T07:13:34.366Z,0.98
2022-09-06T07:16:07.528Z,1.08
2022-09-06T07:26:31.754Z,0.65
2022-09-06T07:29:01.688Z,1.25
2022-09-06T07:34:18.071Z,1.10
2022-09-06T07:36:49.795Z,0.95
2022-09-06T07:39:16.811Z,0.60
2022-09-06T07:41:43.984Z,1.10
2022-09-06T07:44:10.897Z,0.60
2022-09-06T07:46:38.118Z,1.02
2022-09-06T07:49:06.327Z,0.55
2022-09-06T07:51:33.628Z,1.35
2022-09-06T07:54:34.702Z,0.50
2022-09-06T07:56:48.142Z,0.88
2022-09-06T07:59:15.880Z,0.82
2022-09-06T08:01:43.003Z,1.17
2022-09-06T08:04:15.615Z,0.70
2022-09-06T08:09:34.057Z,1.38
2022-09-06T08:12:06.771Z,0.77
2022-09-06T08:14:34.683Z,1.02
2022-09-06T08:17:02.458Z,0.68
2022-09-06T08:19:29.532Z,0.60
2022-09-06T08:21:57.115Z,0.60
2022-09-06T08:24:24.090Z,0.47
2022-09-06T08:26:51.095Z,0.40
2022-09-06T08:29:19.906Z,0.52
2022-09-06T08:31:47.400Z,0.50
2022-09-06T08:34:15.235Z,0.60
2022-09-06T08:36:43.610Z,0.52
2022-09-06T08:39:10.895Z,0.45
2022-09-06T08:41:52.638Z,0.40
2022-09-06T08:47:19.164Z,0.45
2022-09-06T08:49:47.736Z,0.40
2022-09-06T08:52:41.779Z,0.82
2022-09-06T08:55:36.682Z,0.60
2022-09-06T08:58:39.306Z,0.75
2022-09-06T09:01:18.227Z,0.43
2022-09-06T09:03:47.168Z,1.00
2022-09-06T09:06:14.704Z,0.90
2022-09-06T09:08:46.425Z,0.70
2022-09-06T09:11:19.647Z,0.47
2022-09-06T09:13:46.986Z,0.70
2022-09-06T09:16:15.353Z,0.65
2022-09-06T09:18:49.230Z,0.50
2022-09-06T09:21:21.120Z,0.55
2022-09-06T09:23:53.920Z,0.52
2022-09-06T09:26:26.904Z,0.50
2022-09-06T09:31:43.347Z,0.50
2022-09-06T09:34:27.715Z,0.32
2022-09-06T09:37:46.519Z,0.52
2022-09-06T09:40:29.154Z,0.30
2022-09-06T09:43:08.986Z,0.50
2022-09-06T09:45:35.982Z,0.40
2022-09-06T09:48:29.240Z,0.50
2022-09-06T09:50:56.402Z,0.40
2022-09-06T09:53:24.671Z,0.40
2022-09-06T09:55:59.196Z,0.52
2022-09-06T09:58:36.792Z,0.60
2022-09-06T10:01:20.716Z,0.30
2022-09-06T10:09:41.418Z,0.30
2022-09-06T10:12:08.392Z,0.38
2022-09-06T10:14:45.437Z,0.50
2022-09-06T10:17:48.618Z,0.63
2022-09-06T10:20:16.634Z,0.70
2022-09-06T10:22:49.697Z,0.47
2022-09-06T10:25:37.869Z,0.40
2022-09-06T10:28:28.812Z,0.63
2022-09-06T10:31:17.155Z,0.40
2022-09-06T10:33:56.122Z,0.60
2022-09-06T10:36:34.092Z,1.02
2022-09-06T10:39:21.322Z,0.35
2022-09-06T10:42:03.549Z,0.35
2022-09-06T10:44:38.166Z,0.32
2022-09-06T10:47:12.141Z,0.38
2022-09-06T10:49:42.990Z,0.35
2022-09-06T10:52:17.839Z,0.43
2022-09-06T10:54:47.357Z,0.30
2022-09-06T11:00:14.489Z,0.40
2022-09-06T11:05:52.984Z,0.68
2022-09-06T11:11:19.758Z,0.40
2022-09-06T11:13:47.424Z,0.30
2022-09-06T11:16:25.749Z,0.43
2022-09-06T11:19:02.397Z,0.30
2022-09-06T11:22:05.881Z,0.40
2022-09-06T11:25:10.507Z,0.45
2022-09-06T11:27:41.884Z,0.30
2022-09-06T11:30:15.677Z,0.57
2022-09-06T11:32:49.847Z,0.30
2022-09-06T11:35:30.311Z,0.32
2022-09-06T11:38:09.895Z,0.40
2022-09-06T11:40:44.086Z,0.20
2022-09-06T11:43:38.963Z,0.43
2022-09-06T11:46:06.147Z,0.20
2022-09-06T11:48:43.495Z,0.10
2022-09-06T11:51:11.265Z,0.20
2022-09-06T11:53:50.181Z,0.30
2022-09-06T11:56:30.909Z,0.30
2022-09-06T11:59:10.495Z,0.20
2022-09-06T12:01:40.912Z,0.40
2022-09-06T12:04:10.171Z,0.20
2022-09-06T12:06:43.773Z,0.55
2022-09-06T12:09:46.712Z,0.30
2022-09-06T12:12:42.820Z,0.43
2022-09-06T12:15:29.672Z,0.35
2022-09-06T12:17:58.500Z,0.60
2022-09-06T12:20:54.331Z,0.30
2022-09-06T12:23:36.357Z,0.30
2022-09-06T12:26:08.749Z,0.47
2022-09-06T12:28:47.287Z,0.20
2022-09-06T12:31:29.571Z,0.35
2022-09-06T12:33:57.922Z,0.20
2022-09-06T12:36:29.852Z,0.10
2022-09-06T12:38:59.933Z,0.10
2022-09-06T12:41:30.713Z,0.17
2022-09-06T12:44:00.649Z,0.10
2022-09-06T12:46:31.065Z,0.30
2022-09-06T12:49:07.114Z,0.47
2022-09-06T12:51:35.491Z,0.10
2022-09-06T12:54:24.661Z,0.13
2022-09-06T12:56:53.371Z,0.47
2022-09-06T12:59:25.154Z,0.32
2022-09-06T13:02:00.767Z,0.20
2022-09-06T13:04:41.859Z,0.30
2022-09-06T13:07:12.921Z,1.27
2022-09-06T13:09:43.642Z,0.20
2022-09-06T13:12:26.336Z,0.43
2022-09-06T13:14:55.955Z,0.20
2022-09-06T13:17:30.525Z,0.43
2022-09-06T13:19:58.294Z,0.20
2022-09-06T13:22:46.123Z,0.30
2022-09-06T13:25:33.525Z,0.35
2022-09-06T13:28:02.344Z,0.20
2022-09-06T13:30:35.966Z,0.60
2022-09-06T13:33:06.340Z,0.28
2022-09-06T13:35:37.104Z,0.30
2022-09-06T13:38:34.057Z,0.30
2022-09-06T13:41:17.085Z,0.20
2022-09-06T13:43:47.686Z,0.32
2022-09-06T13:46:14.899Z,0.22
2022-09-06T13:48:44.534Z,0.20
2022-09-06T13:51:11.947Z,0.28
2022-09-06T13:53:39.149Z,0.20
2022-09-06T13:56:08.639Z,0.43
2022-09-06T13:58:36.730Z,0.10
2022-09-06T14:01:08.735Z,0.10
2022-09-06T14:03:39.852Z,0.10
2022-09-06T14:06:08.240Z,0.28
2022-09-06T14:08:56.298Z,0.28
2022-09-06T14:11:24.764Z,0.10
2022-09-06T14:13:51.694Z,0.85
2022-09-06T14:16:18.991Z,0.30
2022-09-06T14:18:46.577Z,0.47
2022-09-06T14:21:13.643Z,0.40
2022-09-06T14:23:40.615Z,0.22
2022-09-06T14:26:07.775Z,0.25
2022-09-06T14:28:34.837Z,0.30
2022-09-06T14:31:32.668Z,0.30
2022-09-06T14:34:04.155Z,0.30
2022-09-06T14:36:32.947Z,0.30
2022-09-06T14:39:01.509Z,0.30
2022-09-06T14:41:28.951Z,0.40
2022-09-06T14:43:57.634Z,0.28
2022-09-06T14:46:26.564Z,0.20
2022-09-06T14:49:08.616Z,0.35
2022-09-06T14:51:36.969Z,0.20
2022-09-06T14:54:09.735Z,0.25
2022-09-06T14:59:07.682Z,0.20
2022-09-06T15:01:38.419Z,0.17
2022-09-06T15:04:08.160Z,0.40
2022-09-06T15:06:37.007Z,0.10
2022-09-06T15:09:05.656Z,0.50
2022-09-06T15:11:37.850Z,0.25
2022-09-06T15:14:07.923Z,0.20
2022-09-06T15:16:35.991Z,0.17
2022-09-06T15:19:03.197Z,0.20
2022-09-06T15:21:31.000Z,0.30
2022-09-06T15:24:00.113Z,0.50
2022-09-06T15:26:27.139Z,1.05
2022-09-06T15:28:54.299Z,0.57
2022-09-06T15:31:21.808Z,0.50
2022-09-06T15:33:51.339Z,0.30
2022-09-06T15:36:18.858Z,0.20
2022-09-06T15:38:48.837Z,0.20
2022-09-06T15:41:18.449Z,0.43
2022-09-06T15:43:47.889Z,0.20
2022-09-06T15:46:16.682Z,0.10
2022-09-06T15:48:46.216Z,0.30
2022-09-06T15:51:17.583Z,0.30
2022-09-06T15:53:45.219Z,0.20
2022-09-06T15:56:15.306Z,0.30
2022-09-06T15:58:42.918Z,0.20
2022-09-06T16:01:10.256Z,0.30
2022-09-06T16:03:42.020Z,0.28
2022-09-06T16:06:27.881Z,0.50
2022-09-06T16:09:01.277Z,0.45
2022-09-06T16:11:30.069Z,0.35
2022-09-06T16:13:57.462Z,0.30
2022-09-06T16:16:24.784Z,0.20
2022-09-06T16:18:54.951Z,0.20
2022-09-06T16:21:29.568Z,0.20
2022-09-06T16:24:07.995Z,0.68
2022-09-06T16:26:38.342Z,0.75
2022-09-06T16:29:07.161Z,0.75
2022-09-06T16:31:39.844Z,0.40
2022-09-06T16:34:12.351Z,0.20
2022-09-06T16:36:39.979Z,0.50
2022-09-06T16:39:07.867Z,1.92
2022-09-06T16:41:39.494Z,1.50
2022-09-06T16:44:08.090Z,0.85
2022-09-06T16:46:35.331Z,1.27
2022-09-06T16:49:03.229Z,1.25
2022-09-06T16:51:33.867Z,1.30
2022-09-06T16:54:01.386Z,0.70
2022-09-06T16:56:33.429Z,0.98
2022-09-06T16:59:04.115Z,0.57
2022-09-06T17:01:32.442Z,0.80
2022-09-06T17:04:04.014Z,0.73
2022-09-06T17:06:33.095Z,0.30
2022-09-06T17:09:00.253Z,0.50
2022-09-06T17:11:28.341Z,0.32
2022-09-06T17:13:56.296Z,0.80
2022-09-06T17:16:42.743Z,0.73
2022-09-06T17:19:13.959Z,0.55
2022-09-06T17:21:41.149Z,0.80
2022-09-06T17:24:08.663Z,0.60
2022-09-06T17:26:37.692Z,0.80
2022-09-06T17:29:05.439Z,0.93
2022-09-06T17:31:33.353Z,0.88
2022-09-06T17:34:07.991Z,0.50
2022-09-06T17:36:36.490Z,0.80
2022-09-06T17:39:09.679Z,0.80
2022-09-06T17:41:42.403Z,1.13
2022-09-06T17:44:11.175Z,1.17
2022-09-06T17:46:51.880Z,0.85
2022-09-06T17:49:25.804Z,0.80
2022-09-06T17:51:55.665Z,0.63
2022-09-06T17:54:22.780Z,0.88
2022-09-06T17:56:49.757Z,0.98
2022-09-06T17:59:17.130Z,1.08
2022-09-06T18:01:45.762Z,1.33
2022-09-06T18:04:13.660Z,1.67
2022-09-06T18:06:43.171Z,1.48
2022-09-06T18:09:14.842Z,1.00
2022-09-06T18:11:45.600Z,2.58
2022-09-06T18:14:16.233Z,2.17
2022-09-06T18:16:49.115Z,2.17
2022-09-06T18:21:45.298Z,2.22
2022-09-06T18:24:15.280Z,2.50
2022-09-06T18:26:43.078Z,2.45
2022-09-06T18:29:15.079Z,2.20
2022-09-06T18:31:42.868Z,2.22
2022-09-06T18:34:10.266Z,3.08
2022-09-06T18:36:38.516Z,2.08
2022-09-06T18:39:06.071Z,2.08
2022-09-06T18:41:52.991Z,1.60
2022-09-06T18:44:20.198Z,2.00
2022-09-06T18:46:47.974Z,1.67
2022-09-06T18:49:17.676Z,1.80
2022-09-06T18:51:45.589Z,1.90
2022-09-06T18:54:13.237Z,2.17
2022-09-06T18:56:40.782Z,1.63
2022-09-06T18:59:08.596Z,2.08
2022-09-06T19:01:36.591Z,3.05
2022-09-06T19:04:04.871Z,1.45
2022-09-06T19:06:33.920Z,1.65
2022-09-06T19:09:04.652Z,2.28
2022-09-06T19:11:31.819Z,3.35
2022-09-06T19:13:59.127Z,4.25
2022-09-06T19:16:29.239Z,3.90
2022-09-06T19:18:56.960Z,3.20
2022-09-06T19:21:25.564Z,2.90
2022-09-06T19:23:58.754Z,2.85
2022-09-06T19:26:29.321Z,2.83
2022-09-06T19:28:59.739Z,3.03
2022-09-06T19:31:33.162Z,2.63
2022-09-06T19:34:00.473Z,2.90
2022-09-06T19:36:29.430Z,2.58
2022-09-06T19:39:03.889Z,2.40
2022-09-06T19:41:35.594Z,2.10
2022-09-06T19:44:05.881Z,1.92
2022-09-06T19:46:33.599Z,2.08
2022-09-06T19:49:01.001Z,2.40
2022-09-06T19:51:27.926Z,2.38
2022-09-06T19:53:57.766Z,1.92
2022-09-06T19:56:33.867Z,2.22
2022-09-06T19:59:07.155Z,1.52
2022-09-06T20:01:35.880Z,2.30
2022-09-06T20:04:05.249Z,1.85
2022-09-06T20:06:33.050Z,1.77
2022-09-06T20:09:01.578Z,2.30
2022-09-06T20:11:30.967Z,2.88
2022-09-06T20:13:59.310Z,1.75
2022-09-06T20:16:26.773Z,1.90
2022-09-06T20:18:58.963Z,1.85
2022-09-06T20:21:27.113Z,2.08
2022-09-06T20:23:55.894Z,2.40
2022-09-06T20:26:24.213Z,1.90
2022-09-06T20:28:59.278Z,2.20
2022-09-06T20:31:28.984Z,2.60
2022-09-06T20:33:56.536Z,2.10
2022-09-06T20:36:23.543Z,2.42
2022-09-06T20:38:50.893Z,1.90
2022-09-06T20:41:20.141Z,2.42
2022-09-06T20:43:52.339Z,2.30
2022-09-06T20:46:22.333Z,2.38
2022-09-06T20:48:49.978Z,2.30
2022-09-06T20:51:19.814Z,2.10
2022-09-06T20:53:51.079Z,2.17
2022-09-06T20:56:20.006Z,2.45
2022-09-06T20:58:52.123Z,1.98
2022-09-06T21:01:22.704Z,2.25
2022-09-06T21:03:57.382Z,2.00
2022-09-06T21:06:27.237Z,2.60
2022-09-06T21:08:55.071Z,2.08
2022-09-06T21:11:23.001Z,2.60
2022-09-06T21:13:52.279Z,2.22
2022-09-06T21:16:24.302Z,1.98
2022-09-06T21:18:57.314Z,2.60
2022-09-06T21:21:25.540Z,2.67
2022-09-06T21:23:53.218Z,2.97
2022-09-06T21:26:21.882Z,18.08
2022-09-06T21:28:49.542Z,3.45
2022-09-06T21:31:25.286Z,3.35
2022-09-06T21:33:55.010Z,2.53
2022-09-06T21:36:29.908Z,3.13
2022-09-06T21:39:02.285Z,3.10
2022-09-06T21:41:30.422Z,2.95
2022-09-06T21:44:02.264Z,3.28
2022-09-06T21:46:33.444Z,3.67
2022-09-06T21:49:04.110Z,3.15
2022-09-06T21:51:32.411Z,3.35
2022-09-06T21:53:59.811Z,3.25
2022-09-06T21:56:26.770Z,2.92
2022-09-06T21:58:56.457Z,3.85
2022-09-06T22:01:25.256Z,3.00
2022-09-06T22:03:52.502Z,3.45
2022-09-06T22:06:22.380Z,3.53
2022-09-06T22:08:49.667Z,3.53
2022-09-06T22:11:28.662Z,3.45
2022-09-06T22:13:59.536Z,3.40
2022-09-06T22:16:28.028Z,3.42
2022-09-06T22:18:55.210Z,3.55
2022-09-06T22:21:23.019Z,3.10
2022-09-06T22:24:04.330Z,3.45
2022-09-06T22:26:33.678Z,3.90
2022-09-06T22:29:04.734Z,3.35
2022-09-06T22:31:33.051Z,3.28
2022-09-06T22:34:01.222Z,3.78
2022-09-06T22:36:28.711Z,3.63
2022-09-06T22:38:58.960Z,3.72
2022-09-06T22:41:29.011Z,3.30
2022-09-06T22:43:56.524Z,3.58
2022-09-06T22:46:24.041Z,3.80
2022-09-06T22:48:52.087Z,3.60
2022-09-06T22:51:19.077Z,3.60
2022-09-06T22:53:46.055Z,4.18
2022-09-06T22:56:13.231Z,3.78
2022-09-06T22:58:40.339Z,4.13
2022-09-06T23:01:10.892Z,4.03
2022-09-06T23:03:39.070Z,3.30
2022-09-06T23:06:06.449Z,3.60
2022-09-06T23:08:35.372Z,3.75
2022-09-06T23:11:08.433Z,3.47
2022-09-06T23:13:35.542Z,3.47
2022-09-06T23:16:04.280Z,3.65
2022-09-06T23:18:31.860Z,3.53
2022-09-06T23:21:04.240Z,3.72
2022-09-06T23:23:31.300Z,3.47
2022-09-06T23:26:04.490Z,3.10
2022-09-06T23:28:31.698Z,4.00
2022-09-06T23:31:02.761Z,4.03
2022-09-06T23:33:31.367Z,3.10
2022-09-06T23:35:59.016Z,3.80
2022-09-06T23:38:26.114Z,3.33
2022-09-06T23:40:53.950Z,3.35
2022-09-06T23:43:21.000Z,3.80
2022-09-06T23:45:48.035Z,3.20
2022-09-06T23:48:15.227Z,2.85
2022-09-06T23:50:44.674Z,3.38
2022-09-06T23:53:16.467Z,3.20
2022-09-06T23:55:44.157Z,3.50
2022-09-06T23:58:12.151Z,3.03
